createdAt,value
2019-04-23T00:00:45.501Z,0
2019-04-23T00:01:49.272Z,0
2019-04-23T00:02:50.661Z,0
2019-04-23T00:03:47.628Z,0
2019-04-23T00:04:48.053Z,0
2019-04-23T00:06:15.196Z,0
2019-04-23T00:06:59.370Z,0
2019-04-23T00:07:56.187Z,0
2019-04-23T00:08:58.099Z,0
2019-04-23T00:10:07.928Z,0
2019-04-23T00:10:58.920Z,0
2019-04-23T00:12:01.814Z,0
2019-04-23T00:13:12.867Z,0
2019-04-23T00:14:05.671Z,0
2019-04-23T00:15:07.538Z,0
2019-04-23T00:16:13.528Z,0
2019-04-23T00:17:11.519Z,0
2019-04-23T00:18:07.872Z,0
2019-04-23T00:19:02.558Z,0
2019-04-23T00:20:09.573Z,0
2019-04-23T00:21:13.750Z,0
2019-04-23T00:22:07.299Z,0
2019-04-23T00:23:10.918Z,0
2019-04-23T00:24:23.317Z,0
2019-04-23T00:28:24.397Z,0
2019-04-23T00:29:19.006Z,0
2019-04-23T00:30:31.388Z,0
2019-04-23T00:31:23.993Z,0
2019-04-23T00:33:27.031Z,0
2019-04-23T00:34:38.071Z,0
2019-04-23T00:35:26.080Z,0
2019-04-23T00:36:32.163Z,0
2019-04-23T00:38:33.855Z,0
2019-04-23T00:39:34.341Z,0
2019-04-23T00:40:31.786Z,0
2019-04-23T00:41:38.650Z,0
2019-04-23T00:42:38.505Z,0
2019-04-23T00:43:38.913Z,0
2019-04-23T00:44:40.116Z,0
2019-04-23T00:45:41.215Z,0
2019-04-23T00:47:38.434Z,0
2019-04-23T00:48:44.089Z,0
2019-04-23T00:49:40.339Z,0
2019-04-23T00:50:49.199Z,0
2019-04-23T00:51:47.738Z,0
2019-04-23T00:52:45.844Z,0
2019-04-23T00:53:44.209Z,0
2019-04-23T00:54:51.912Z,0
2019-04-23T00:55:47.631Z,0
2019-04-23T00:56:54.484Z,0
2019-04-23T00:57:48.759Z,0
2019-04-23T00:58:56.462Z,0
2019-04-23T01:00:52.797Z,0
2019-04-23T01:01:56.576Z,0
2019-04-23T01:02:59.049Z,0
2019-04-23T01:03:58.280Z,0
2019-04-23T01:05:04.833Z,0
2019-04-23T01:06:00.627Z,0
2019-04-23T01:08:07.061Z,0
2019-04-23T01:09:03.847Z,0
2019-04-23T01:10:10.138Z,0
2019-04-23T01:11:21.067Z,0
2019-04-23T01:12:14.142Z,0
2019-04-23T01:13:14.952Z,0
2019-04-23T01:14:08.316Z,0
2019-04-23T01:16:11.615Z,0
2019-04-23T01:17:18.570Z,0
2019-04-23T01:18:19.068Z,0
2019-04-23T01:19:20.692Z,0
2019-04-23T01:20:14.592Z,0
2019-04-23T01:20:56.460Z,0
2019-04-23T01:21:57.936Z,0
2019-04-23T01:22:58.979Z,0
2019-04-23T01:24:05.693Z,0
2019-04-23T01:25:10.793Z,0
2019-04-23T01:26:20.700Z,0
2019-04-23T01:27:49.168Z,0
2019-04-23T01:28:26.683Z,0
2019-04-23T01:29:34.078Z,0
2019-04-23T01:30:27.930Z,0
2019-04-23T01:31:49.276Z,0
2019-04-23T01:32:32.116Z,0
2019-04-23T01:33:43.107Z,0
2019-04-23T01:34:42.450Z,0
2019-04-23T01:35:34.217Z,0
2019-04-23T01:36:51.598Z,0
2019-04-23T01:38:45.879Z,0
2019-04-23T01:39:49.964Z,0
2019-04-23T01:40:40.755Z,0
2019-04-23T01:41:50.791Z,0
2019-04-23T01:43:00.015Z,0
2019-04-23T01:43:47.121Z,0
2019-04-23T01:44:54.117Z,0
2019-04-23T01:45:40.975Z,0
2019-04-23T01:46:56.120Z,0
2019-04-23T01:50:06.651Z,0
2019-04-23T01:52:00.299Z,0
2019-04-23T01:54:01.795Z,0
2019-04-23T01:55:08.137Z,0
2019-04-23T01:57:09.422Z,0
2019-04-23T01:58:26.095Z,0
2019-04-23T01:59:12.403Z,0
2019-04-23T02:00:16.134Z,0
2019-04-23T02:01:11.636Z,0
2019-04-23T02:02:14.382Z,0
2019-04-23T02:03:15.530Z,0
2019-04-23T02:04:26.579Z,0
2019-04-23T02:05:24.526Z,0
2019-04-23T02:06:20.544Z,0
2019-04-23T02:07:24.368Z,0
2019-04-23T02:08:19.342Z,0
2019-04-23T02:09:25.305Z,0
2019-04-23T02:10:29.550Z,0
2019-04-23T02:11:25.559Z,0
2019-04-23T02:12:22.322Z,0
2019-04-23T02:13:33.910Z,0
2019-04-23T02:14:29.652Z,0
2019-04-23T02:15:34.982Z,0
2019-04-23T02:16:33.914Z,0
2019-04-23T02:17:26.742Z,0
2019-04-23T02:18:33.897Z,0
2019-04-23T02:19:44.300Z,0
2019-04-23T02:20:36.035Z,0
2019-04-23T02:22:56.272Z,0
2019-04-23T02:23:35.866Z,0
2019-04-23T02:24:41.392Z,0
2019-04-23T02:25:44.310Z,0
2019-04-23T02:27:43.846Z,0
2019-04-23T02:28:49.351Z,0
2019-04-23T02:29:51.276Z,0
2019-04-23T02:31:58.255Z,0
2019-04-23T02:33:12.815Z,0
2019-04-23T02:35:16.981Z,0
2019-04-23T02:37:00.340Z,0
2019-04-23T02:38:27.329Z,0
2019-04-23T02:38:55.477Z,0
2019-04-23T02:40:23.880Z,0
2019-04-23T02:42:25.127Z,0
2019-04-23T02:45:09.416Z,0
2019-04-23T02:49:32.312Z,0
2019-04-23T02:51:17.976Z,0
2019-04-23T02:52:21.787Z,0
2019-04-23T02:54:38.177Z,0
2019-04-23T02:55:39.254Z,0
2019-04-23T02:56:47.343Z,0
2019-04-23T02:57:41.544Z,0
2019-04-23T02:59:44.605Z,0
2019-04-23T03:01:31.566Z,0
2019-04-23T03:02:45.192Z,0
2019-04-23T03:03:42.828Z,0
2019-04-23T03:04:40.000Z,0
2019-04-23T03:05:46.015Z,0
2019-04-23T03:07:45.913Z,0
2019-04-23T03:10:56.607Z,0
2019-04-23T03:14:12.118Z,0
2019-04-23T03:15:06.232Z,0
2019-04-23T03:16:19.898Z,0
2019-04-23T03:18:12.424Z,0
2019-04-23T03:20:11.197Z,0
2019-04-23T03:23:22.873Z,0
2019-04-23T03:25:10.313Z,0
2019-04-23T03:26:26.328Z,0
2019-04-23T03:28:21.225Z,0
2019-04-23T03:29:21.843Z,0
2019-04-23T03:35:08.686Z,4
2019-04-23T03:36:37.976Z,0
2019-04-23T03:37:32.202Z,4
2019-04-23T03:38:38.009Z,4
2019-04-23T03:39:46.206Z,0
2019-04-23T03:40:46.262Z,4
2019-04-23T03:41:39.658Z,4
2019-04-23T03:42:53.862Z,8
2019-04-23T03:43:38.914Z,8
2019-04-23T03:44:49.604Z,8
2019-04-23T03:45:56.419Z,8
2019-04-23T03:46:49.897Z,12
2019-04-23T03:47:37.608Z,12
2019-04-23T03:49:48.721Z,20
2019-04-23T03:50:39.054Z,24
2019-04-23T03:51:56.795Z,24
2019-04-23T03:56:19.029Z,48
2019-04-23T03:57:52.368Z,64
2019-04-23T03:59:05.933Z,72
2019-04-23T04:00:03.478Z,84
2019-04-23T04:02:31.371Z,112
2019-04-23T04:04:22.630Z,144
2019-04-23T04:05:10.841Z,164
2019-04-23T04:08:56.027Z,228
2019-04-23T04:10:40.890Z,280
2019-04-23T04:11:19.245Z,308
2019-04-23T04:14:32.151Z,400
2019-04-23T04:16:28.281Z,464
2019-04-23T04:17:35.545Z,500
2019-04-23T04:18:48.878Z,536
2019-04-23T04:21:36.330Z,656
2019-04-23T04:22:46.657Z,700
2019-04-23T04:24:48.653Z,788
2019-04-23T04:25:41.177Z,836
2019-04-23T04:26:55.786Z,884
2019-04-23T04:28:03.567Z,928
2019-04-23T04:28:48.629Z,976
2019-04-23T04:30:00.999Z,1028
2019-04-23T04:30:48.144Z,1076
2019-04-23T04:32:00.272Z,1128
2019-04-23T04:32:56.921Z,1176
2019-04-23T04:35:12.556Z,1272
2019-04-23T04:36:04.777Z,1320
2019-04-23T04:38:09.430Z,1424
2019-04-23T04:39:08.131Z,1476
2019-04-23T04:40:23.563Z,1528
2019-04-23T04:41:01.023Z,1572
2019-04-23T04:42:06.103Z,1616
2019-04-23T04:43:13.824Z,1676
2019-04-23T04:44:33.335Z,1728
2019-04-23T04:45:14.130Z,1780
2019-04-23T04:47:09.857Z,1840
2019-04-23T04:48:09.943Z,1936
2019-04-23T04:49:12.085Z,1980
2019-04-23T04:50:08.156Z,2028
2019-04-23T04:51:24.261Z,2072
2019-04-23T04:53:37.982Z,2176
2019-04-23T04:54:21.232Z,2232
2019-04-23T04:55:21.515Z,2276
2019-04-23T04:56:35.976Z,2328
2019-04-23T05:01:30.124Z,2568
2019-04-23T05:03:29.638Z,2660
2019-04-23T05:06:01.803Z,2760
2019-04-23T05:06:44.306Z,2808
2019-04-23T05:07:54.809Z,2880
2019-04-23T05:12:54.992Z,3144
2019-04-23T05:15:00.812Z,3200
2019-04-23T05:15:51.851Z,3252
2019-04-23T05:17:11.179Z,3292
2019-04-23T05:17:59.634Z,3364
2019-04-23T05:19:02.531Z,3408
2019-04-23T05:19:58.280Z,3464
2019-04-23T05:21:12.234Z,3532
2019-04-23T05:23:08.810Z,3660
2019-04-23T05:24:06.841Z,3912
2019-04-23T05:24:57.140Z,4064
2019-04-23T05:26:02.018Z,3964
2019-04-23T05:27:04.623Z,4180
2019-04-23T05:28:09.630Z,4476
2019-04-23T05:29:06.414Z,4080
2019-04-23T05:30:09.976Z,4524
2019-04-23T05:31:05.741Z,4124
2019-04-23T05:32:10.828Z,4172
2019-04-23T05:33:14.539Z,7712
2019-04-23T05:35:16.905Z,2700
2019-04-23T05:36:22.836Z,8168
2019-04-23T05:37:11.531Z,4288
2019-04-23T05:39:27.991Z,6860
2019-04-23T05:41:27.073Z,4508
2019-04-23T05:42:19.828Z,7428
2019-04-23T05:43:19.272Z,5936
2019-04-23T05:44:41.686Z,5084
2019-04-23T05:45:21.784Z,4628
2019-04-23T05:46:33.812Z,5184
2019-04-23T05:47:29.173Z,5020
2019-04-23T05:48:24.854Z,4788
2019-04-23T05:49:24.823Z,4860
2019-04-23T05:50:39.165Z,4896
2019-04-23T05:51:38.796Z,5116
2019-04-23T05:53:33.902Z,5024
2019-04-23T05:54:37.490Z,5096
2019-04-23T05:55:34.079Z,5136
2019-04-23T05:56:38.554Z,5152
2019-04-23T05:57:38.910Z,5108
2019-04-23T05:59:34.248Z,3072
2019-04-23T06:00:48.834Z,5344
2019-04-23T06:01:54.154Z,7176
2019-04-23T06:02:48.572Z,5452
2019-04-23T06:03:52.638Z,5508
2019-04-23T06:04:49.628Z,5392
2019-04-23T06:07:11.309Z,5672
2019-04-23T06:08:53.482Z,5656
2019-04-23T06:10:02.858Z,6352
2019-04-23T06:10:58.681Z,5596
2019-04-23T06:13:03.186Z,6004
2019-04-23T06:14:09.754Z,6264
2019-04-23T06:14:59.523Z,5868
2019-04-23T06:16:12.283Z,6460
2019-04-23T06:17:03.264Z,5780
2019-04-23T06:18:14.523Z,5988
2019-04-23T06:19:08.053Z,5824
2019-04-23T06:20:09.244Z,6024
2019-04-23T06:21:10.109Z,5748
2019-04-23T06:22:28.877Z,6916
2019-04-23T06:23:18.109Z,6016
2019-04-23T06:24:19.652Z,6204
2019-04-23T06:25:21.641Z,6352
2019-04-23T06:26:24.351Z,6260
2019-04-23T06:29:26.084Z,6424
2019-04-23T06:31:03.053Z,6520
2019-04-23T06:31:26.650Z,6464
2019-04-23T06:32:22.765Z,6452
2019-04-23T06:33:25.657Z,6576
2019-04-23T06:34:33.914Z,8644
2019-04-23T06:35:45.447Z,6584
2019-04-23T06:37:39.735Z,6740
2019-04-23T06:38:42.811Z,10980
2019-04-23T06:39:38.184Z,10944
2019-04-23T06:40:34.051Z,6856
2019-04-23T06:41:36.225Z,6880
2019-04-23T06:42:34.870Z,7208
2019-04-23T06:43:42.287Z,7384
2019-04-23T06:44:37.663Z,7860
2019-04-23T06:45:41.672Z,7376
2019-04-23T06:47:48.118Z,7412
2019-04-23T06:48:47.215Z,7352
2019-04-23T06:50:59.371Z,7180
2019-04-23T06:52:06.752Z,7624
2019-04-23T06:52:50.023Z,7920
2019-04-23T06:53:53.373Z,7284
2019-04-23T06:55:56.375Z,7312
2019-04-23T06:57:57.100Z,7136
2019-04-23T06:58:58.879Z,15932
2019-04-23T07:00:02.404Z,7488
2019-04-23T07:01:03.331Z,10212
2019-04-23T07:02:06.409Z,10324
2019-04-23T07:03:11.416Z,12332
2019-04-23T07:04:06.320Z,10304
2019-04-23T07:05:10.388Z,12900
2019-04-23T07:07:30.955Z,8600
2019-04-23T07:08:11.610Z,20636
2019-04-23T07:09:12.083Z,11596
2019-04-23T07:10:16.282Z,8292
2019-04-23T07:12:18.169Z,15196
2019-04-23T07:13:22.815Z,10368
2019-04-23T07:14:25.600Z,8120
2019-04-23T07:15:40.738Z,8468
2019-04-23T07:16:16.160Z,8948
2019-04-23T07:17:16.018Z,15428
2019-04-23T07:18:23.741Z,8308
2019-04-23T07:19:26.903Z,15296
2019-04-23T07:20:21.509Z,14424
2019-04-23T07:21:21.923Z,10484
2019-04-23T07:22:21.672Z,17248
2019-04-23T07:23:35.664Z,19224
2019-04-23T07:24:21.535Z,10368
2019-04-23T07:25:29.543Z,8628
2019-04-23T07:27:27.749Z,12184
2019-04-23T07:28:37.273Z,11820
2019-04-23T07:29:31.299Z,14588
2019-04-23T07:30:35.915Z,8688
2019-04-23T07:31:50.974Z,15240
2019-04-23T07:32:35.975Z,8876
2019-04-23T07:33:44.012Z,13844
2019-04-23T07:34:41.610Z,15400
2019-04-23T07:35:39.793Z,27360
2019-04-23T07:36:55.752Z,32800
2019-04-23T07:37:53.529Z,31744
2019-04-23T07:38:55.037Z,13060
2019-04-23T07:39:57.102Z,33472
2019-04-23T07:40:47.966Z,9508
2019-04-23T07:41:59.406Z,17144
2019-04-23T07:42:53.086Z,10472
2019-04-23T07:44:02.730Z,15424
2019-04-23T07:44:56.387Z,26656
2019-04-23T07:46:08.133Z,8620
2019-04-23T07:47:11.557Z,34752
2019-04-23T07:48:08.032Z,11688
2019-04-23T07:48:56.740Z,20588
2019-04-23T07:50:09.538Z,19328
2019-04-23T07:51:14.085Z,18816
2019-04-23T07:52:11.053Z,12156
2019-04-23T07:54:11.359Z,37120
2019-04-23T07:55:13.740Z,49120
2019-04-23T07:56:07.356Z,60224
2019-04-23T07:57:15.391Z,53920
2019-04-23T07:58:19.565Z,56224
2019-04-23T07:59:14.279Z,36768
2019-04-23T08:00:35.323Z,28576
2019-04-23T08:01:12.532Z,57888
2019-04-23T08:02:19.385Z,24800
2019-04-23T08:03:30.724Z,54240
2019-04-23T08:04:18.311Z,32480
2019-04-23T08:05:22.820Z,12424
2019-04-23T08:06:17.938Z,56896
2019-04-23T08:07:19.942Z,51488
2019-04-23T08:08:16.737Z,46752
2019-04-23T08:09:30.098Z,50080
2019-04-23T08:10:27.828Z,11948
2019-04-23T08:11:34.317Z,61888
2019-04-23T08:12:32.046Z,37152
2019-04-23T08:13:39.801Z,47040
2019-04-23T08:14:32.975Z,44512
2019-04-23T08:15:36.948Z,45632
2019-04-23T08:16:33.603Z,45600
2019-04-23T08:17:37.514Z,46432
2019-04-23T08:18:36.537Z,74272
2019-04-23T08:20:46.978Z,45472
2019-04-23T08:21:36.344Z,46240
2019-04-23T08:22:40.219Z,49728
2019-04-23T08:23:44.101Z,49792
2019-04-23T08:24:50.574Z,44416
2019-04-23T08:25:56.391Z,44512
2019-04-23T08:26:52.060Z,50144
2019-04-23T08:27:42.146Z,51328
2019-04-23T08:28:58.357Z,49536
2019-04-23T08:29:48.831Z,52896
2019-04-23T08:30:52.785Z,58464
2019-04-23T08:32:00.640Z,59392
2019-04-23T08:32:57.618Z,57440
2019-04-23T08:34:11.083Z,56576
2019-04-23T08:34:58.803Z,57568
2019-04-23T08:36:04.056Z,54912
2019-04-23T08:37:05.078Z,53184
2019-04-23T08:38:11.947Z,57088
2019-04-23T08:39:05.477Z,65248
2019-04-23T08:40:02.517Z,69760
2019-04-23T08:41:20.644Z,70944
2019-04-23T08:42:28.446Z,70304
2019-04-23T08:43:20.881Z,67520
2019-04-23T08:44:18.274Z,61856
2019-04-23T08:45:15.396Z,58464
2019-04-23T08:46:13.982Z,61440
2019-04-23T08:49:25.760Z,68416
2019-04-23T08:50:21.593Z,64288
2019-04-23T08:51:28.363Z,64352
2019-04-23T08:52:18.244Z,66560
2019-04-23T08:54:39.713Z,67328
2019-04-23T08:56:38.631Z,53088
2019-04-23T08:57:30.472Z,50528
2019-04-23T09:01:37.477Z,72448
2019-04-23T09:02:47.691Z,70496
2019-04-23T09:04:50.267Z,64096
2019-04-23T09:05:46.805Z,61440
2019-04-23T09:06:36.997Z,62144
2019-04-23T09:07:45.342Z,65824
2019-04-23T09:08:48.065Z,66944
2019-04-23T09:09:55.173Z,66304
2019-04-23T09:10:47.950Z,68960
2019-04-23T09:11:59.503Z,74272
2019-04-23T09:13:01.081Z,74944
2019-04-23T09:14:58.348Z,70336
2019-04-23T09:15:55.472Z,71008
2019-04-23T09:16:58.043Z,75232
2019-04-23T09:19:02.655Z,78816
2019-04-23T09:21:03.572Z,76960
2019-04-23T09:22:08.960Z,73664
2019-04-23T09:22:55.073Z,72864
2019-04-23T09:24:07.324Z,74560
2019-04-23T09:25:11.624Z,73344
2019-04-23T09:26:05.472Z,69344
2019-04-23T09:27:23.367Z,67200
2019-04-23T09:28:12.995Z,70816
2019-04-23T09:29:14.763Z,78336
2019-04-23T09:30:13.499Z,79680
2019-04-23T09:33:28.300Z,58112
2019-04-23T09:34:17.118Z,55264
2019-04-23T09:35:24.435Z,54880
2019-04-23T09:36:20.467Z,57152
2019-04-23T09:38:43.260Z,60320
2019-04-23T09:39:27.728Z,58848
2019-04-23T09:40:39.126Z,62496
2019-04-23T09:42:31.979Z,75200
2019-04-23T09:45:46.128Z,80576
2019-04-23T09:46:53.205Z,88416
2019-04-23T09:48:48.532Z,82304
2019-04-23T09:49:44.416Z,79648
2019-04-23T09:50:41.579Z,81568
2019-04-23T09:51:45.197Z,83648
2019-04-23T09:53:00.269Z,78496
2019-04-23T09:53:48.793Z,70336
2019-04-23T09:55:11.997Z,64512
2019-04-23T09:55:41.768Z,64256
2019-04-23T09:56:47.431Z,73472
2019-04-23T09:58:00.589Z,78592
2019-04-23T09:58:51.741Z,70880
2019-04-23T09:59:55.017Z,59680
2019-04-23T10:00:52.679Z,58048
2019-04-23T10:01:45.474Z,67072
2019-04-23T10:02:40.916Z,80704
2019-04-23T10:03:41.226Z,84576
2019-04-23T10:04:44.826Z,78880
2019-04-23T10:05:45.096Z,71488
2019-04-23T10:06:36.480Z,70272
2019-04-23T10:07:44.249Z,74336
2019-04-23T10:08:39.519Z,79680
2019-04-23T10:09:34.249Z,81344
2019-04-23T10:10:34.433Z,80672
2019-04-23T10:11:35.131Z,77472
2019-04-23T10:12:35.902Z,76384
2019-04-23T10:13:36.545Z,77216
2019-04-23T10:14:38.558Z,77504
2019-04-23T10:15:41.119Z,76192
2019-04-23T10:16:38.889Z,73760
2019-04-23T10:17:40.276Z,72704
2019-04-23T10:18:41.367Z,72960
2019-04-23T10:19:40.826Z,77312
2019-04-23T10:20:42.646Z,82272
2019-04-23T10:21:43.644Z,84096
2019-04-23T10:22:44.149Z,78208
2019-04-23T10:23:43.481Z,70080
2019-04-23T10:24:45.447Z,66336
2019-04-23T10:25:45.789Z,69376
2019-04-23T10:26:46.076Z,74880
2019-04-23T10:27:52.951Z,78368
2019-04-23T10:28:47.668Z,76448
2019-04-23T10:29:47.939Z,73504
2019-04-23T10:30:49.058Z,75808
2019-04-23T10:31:49.381Z,76864
2019-04-23T10:32:49.744Z,77856
2019-04-23T10:33:50.553Z,76832
2019-04-23T10:35:03.829Z,73920
2019-04-23T10:36:00.332Z,73056
2019-04-23T10:36:53.639Z,73632
2019-04-23T10:38:01.820Z,72928
2019-04-23T10:39:00.660Z,71904
2019-04-23T10:39:59.245Z,68768
2019-04-23T10:40:56.134Z,66688
2019-04-23T10:41:57.583Z,69952
2019-04-23T10:42:59.704Z,82144
2019-04-23T10:43:58.710Z,90368
2019-04-23T10:45:10.903Z,91328
2019-04-23T10:46:16.946Z,86304
2019-04-23T10:47:25.440Z,78752
2019-04-23T10:48:33.029Z,76576
2019-04-23T10:50:40.649Z,83264
2019-04-23T10:51:33.871Z,81856
2019-04-23T10:52:36.362Z,80480
2019-04-23T10:53:39.940Z,83744
2019-04-23T10:54:43.372Z,87776
2019-04-23T10:55:46.784Z,90688
2019-04-23T10:56:46.612Z,89664
2019-04-23T10:57:39.180Z,87968
2019-04-23T10:58:39.279Z,89568
2019-04-23T10:59:44.720Z,95136
2019-04-23T11:00:44.979Z,95232
2019-04-23T11:01:56.630Z,85376
2019-04-23T11:02:48.810Z,70752
2019-04-23T11:05:59.059Z,68864
2019-04-23T11:07:17.080Z,78912
2019-04-23T11:07:47.190Z,79648
2019-04-23T11:09:10.191Z,72736
2019-04-23T11:10:03.686Z,67456
2019-04-23T11:11:09.295Z,67328
2019-04-23T11:12:12.510Z,74240
2019-04-23T11:13:10.759Z,84064
2019-04-23T11:14:13.389Z,89344
2019-04-23T11:15:22.839Z,88128
2019-04-23T11:16:40.056Z,78144
2019-04-23T11:17:19.042Z,68704
2019-04-23T11:18:06.852Z,67456
2019-04-23T11:19:21.168Z,75328
2019-04-23T11:20:27.397Z,85728
2019-04-23T11:21:23.745Z,94176
2019-04-23T11:22:36.154Z,96096
2019-04-23T11:23:15.055Z,92480
2019-04-23T11:24:30.517Z,85760
2019-04-23T11:25:32.973Z,79744
2019-04-23T11:26:28.582Z,78304
2019-04-23T11:27:32.924Z,78848
2019-04-23T11:28:27.425Z,78400
2019-04-23T11:29:35.668Z,76256
2019-04-23T11:30:32.599Z,73248
2019-04-23T11:31:39.268Z,68800
2019-04-23T11:33:51.844Z,78304
2019-04-23T11:34:56.749Z,87776
2019-04-23T11:36:01.386Z,92064
2019-04-23T11:39:45.066Z,87936
2019-04-23T11:40:40.398Z,88800
2019-04-23T11:41:51.729Z,90080
2019-04-23T11:42:49.616Z,88416
2019-04-23T11:43:46.434Z,86176
2019-04-23T11:44:46.091Z,84640
2019-04-23T11:49:19.904Z,92992
2019-04-23T11:52:17.804Z,79968
2019-04-23T11:53:07.386Z,74912
2019-04-23T11:54:07.447Z,74944
2019-04-23T11:55:22.803Z,79424
2019-04-23T11:56:12.115Z,83936
2019-04-23T11:58:13.594Z,81056
2019-04-23T11:59:16.349Z,78880
2019-04-23T12:00:13.826Z,80960
2019-04-23T12:02:12.039Z,81984
2019-04-23T12:03:07.706Z,77184
2019-04-23T12:05:26.907Z,72448
2019-04-23T12:06:25.063Z,75360
2019-04-23T12:07:22.831Z,74880
2019-04-23T12:08:36.805Z,74336
2019-04-23T12:09:38.219Z,75712
2019-04-23T12:12:33.355Z,86144
2019-04-23T12:13:38.321Z,78112
2019-04-23T12:15:39.654Z,62944
2019-04-23T12:16:50.502Z,65248
2019-04-23T12:17:50.808Z,70976
2019-04-23T12:18:58.155Z,73184
2019-04-23T12:20:41.267Z,73440
2019-04-23T12:21:52.464Z,75136
2019-04-23T12:22:51.287Z,72000
2019-04-23T12:25:06.546Z,60480
2019-04-23T12:26:15.520Z,63936
2019-04-23T12:27:00.132Z,70560
2019-04-23T12:27:42.436Z,75680
2019-04-23T12:29:52.303Z,66592
2019-04-23T12:32:09.012Z,64032
2019-04-23T12:33:21.449Z,67360
2019-04-23T12:34:09.872Z,65248
2019-04-23T12:35:03.747Z,62112
2019-04-23T12:36:09.253Z,65568
2019-04-23T12:37:06.362Z,72608
2019-04-23T12:38:14.211Z,76288
2019-04-23T12:39:14.878Z,75680
2019-04-23T12:41:14.692Z,76608
2019-04-23T12:42:38.301Z,75904
2019-04-23T12:44:17.825Z,70560
2019-04-23T12:46:19.856Z,65600
2019-04-23T12:47:36.301Z,69504
2019-04-23T12:51:37.969Z,66912
2019-04-23T12:53:30.589Z,64800
2019-04-23T12:54:42.636Z,63456
2019-04-23T12:56:46.428Z,71264
2019-04-23T12:57:34.375Z,71072
2019-04-23T12:58:38.215Z,65728
2019-04-23T12:59:36.803Z,64096
2019-04-23T13:01:44.267Z,64768
2019-04-23T13:02:48.568Z,63488
2019-04-23T13:03:40.160Z,65408
2019-04-23T13:04:51.757Z,68512
2019-04-23T13:05:34.197Z,63712
2019-04-23T13:06:47.983Z,69056
2019-04-23T13:07:43.571Z,71904
2019-04-23T13:09:01.471Z,74112
2019-04-23T13:09:53.610Z,72000
2019-04-23T13:10:45.284Z,65792
2019-04-23T13:11:49.685Z,63872
2019-04-23T13:13:04.497Z,66816
2019-04-23T13:13:56.369Z,73216
2019-04-23T13:14:56.039Z,78752
2019-04-23T13:15:55.220Z,84928
2019-04-23T13:17:22.280Z,85600
2019-04-23T13:17:53.840Z,75872
2019-04-23T13:19:03.578Z,70400
2019-04-23T13:20:00.555Z,63392
2019-04-23T13:21:14.287Z,57248
2019-04-23T13:22:07.558Z,57344
2019-04-23T13:23:15.231Z,64000
2019-04-23T13:24:04.164Z,69728
2019-04-23T13:25:10.119Z,69568
2019-04-23T13:26:05.697Z,67008
2019-04-23T13:27:12.017Z,67040
2019-04-23T13:29:24.579Z,76160
2019-04-23T13:31:18.107Z,67744
2019-04-23T13:32:23.587Z,62720
2019-04-23T13:33:30.747Z,64704
2019-04-23T13:34:23.029Z,71616
2019-04-23T13:36:27.947Z,77408
2019-04-23T13:37:31.544Z,73408
2019-04-23T13:38:34.339Z,69568
2019-04-23T13:39:24.590Z,69728
2019-04-23T13:40:35.279Z,74528
2019-04-23T13:41:33.508Z,76736
2019-04-23T13:43:37.956Z,67296
2019-04-23T13:44:36.485Z,62368
2019-04-23T13:45:56.421Z,62176
2019-04-23T13:46:36.804Z,64224
2019-04-23T13:47:47.261Z,63936
2019-04-23T13:48:34.481Z,62784
2019-04-23T13:49:49.282Z,65120
2019-04-23T13:50:49.898Z,67008
2019-04-23T13:53:18.385Z,67648
2019-04-23T13:54:24.091Z,60992
2019-04-23T13:55:09.332Z,57568
2019-04-23T13:56:01.946Z,58240
2019-04-23T13:57:36.540Z,63232
2019-04-23T13:58:15.024Z,67360
2019-04-23T14:00:07.111Z,59680
2019-04-23T14:02:17.062Z,56416
2019-04-23T14:03:12.956Z,58048
2019-04-23T14:04:18.090Z,56000
2019-04-23T14:05:17.659Z,51328
2019-04-23T14:07:24.895Z,55328
2019-04-23T14:08:31.063Z,58848
2019-04-23T14:09:31.971Z,58688
2019-04-23T14:12:24.156Z,44512
2019-04-23T14:14:43.740Z,53792
2019-04-23T14:19:34.299Z,50368
2019-04-23T14:20:34.282Z,54784
2019-04-23T14:21:42.400Z,52864
2019-04-23T14:23:59.498Z,29760
2019-04-23T14:25:04.912Z,42464
2019-04-23T14:25:50.677Z,48768
2019-04-23T14:26:38.358Z,52576
2019-04-23T14:27:52.374Z,51168
2019-04-23T14:29:56.501Z,46592
2019-04-23T14:30:53.477Z,45504
2019-04-23T14:31:53.289Z,53376
2019-04-23T14:32:53.723Z,51072
2019-04-23T14:34:01.651Z,47872
2019-04-23T14:35:04.281Z,44128
2019-04-23T14:35:50.920Z,42240
2019-04-23T14:37:00.988Z,41248
2019-04-23T14:38:09.771Z,41600
2019-04-23T14:39:04.239Z,41184
2019-04-23T14:40:01.569Z,45376
2019-04-23T14:42:12.392Z,29216
2019-04-23T14:43:06.456Z,28800
2019-04-23T14:44:13.055Z,25792
2019-04-23T14:45:25.349Z,40544
2019-04-23T14:46:35.236Z,47520
2019-04-23T14:47:22.329Z,35840
2019-04-23T14:48:17.705Z,34496
2019-04-23T14:49:25.900Z,40320
2019-04-23T14:50:28.153Z,45152
2019-04-23T14:52:21.418Z,23776
2019-04-23T14:53:18.224Z,16236
2019-04-23T14:54:23.529Z,12076
2019-04-23T14:57:42.500Z,12556
2019-04-23T14:59:13.495Z,12188
2019-04-23T15:01:36.279Z,12108
2019-04-23T15:02:36.591Z,11812
2019-04-23T15:04:43.675Z,11732
2019-04-23T15:05:45.790Z,11660
2019-04-23T15:07:46.552Z,11884
2019-04-23T15:09:43.097Z,11580
2019-04-23T15:10:57.417Z,12736
2019-04-23T15:13:01.849Z,11272
2019-04-23T15:13:52.160Z,11488
2019-04-23T15:14:59.851Z,11784
2019-04-23T15:16:04.270Z,11032
2019-04-23T15:16:54.704Z,11232
2019-04-23T15:17:56.092Z,10692
2019-04-23T15:19:55.155Z,10744
2019-04-23T15:21:25.547Z,11048
2019-04-23T15:23:02.790Z,10764
2019-04-23T15:24:04.061Z,10616
2019-04-23T15:26:51.152Z,10528
2019-04-23T15:28:07.577Z,10280
2019-04-23T15:28:52.388Z,10244
2019-04-23T15:29:58.192Z,10200
2019-04-23T15:32:18.691Z,10176
2019-04-23T15:33:19.225Z,10208
2019-04-23T15:34:17.687Z,10148
2019-04-23T15:35:22.087Z,9924
2019-04-23T15:36:47.097Z,9840
2019-04-23T15:39:21.394Z,9612
2019-04-23T15:40:20.945Z,9532
2019-04-23T15:42:40.345Z,9348
2019-04-23T15:43:49.549Z,9316
2019-04-23T15:44:23.098Z,9384
2019-04-23T15:45:28.538Z,9144
2019-04-23T15:46:37.187Z,9132
2019-04-23T15:47:32.981Z,8944
2019-04-23T15:48:31.391Z,8960
2019-04-23T15:50:53.850Z,8696
2019-04-23T15:51:38.967Z,8652
2019-04-23T15:52:44.276Z,8464
2019-04-23T15:53:40.994Z,8444
2019-04-23T15:54:37.170Z,8436
2019-04-23T15:55:54.406Z,8448
2019-04-23T15:56:50.095Z,8424
2019-04-23T15:58:00.893Z,8424
2019-04-23T15:59:15.190Z,8384
2019-04-23T15:59:47.945Z,8384
2019-04-23T16:00:55.800Z,8264
2019-04-23T16:01:41.215Z,8080
2019-04-23T16:02:24.651Z,7996
2019-04-23T16:03:28.984Z,8000
2019-04-23T16:04:27.496Z,8072
2019-04-23T16:05:27.824Z,8064
2019-04-23T16:06:30.928Z,8032
2019-04-23T16:07:44.213Z,7896
2019-04-23T16:09:04.762Z,7932
2019-04-23T16:10:04.327Z,8000
2019-04-23T16:11:10.352Z,7736
2019-04-23T16:11:52.649Z,7784
2019-04-23T16:13:02.492Z,7700
2019-04-23T16:14:16.724Z,7748
2019-04-23T16:16:10.635Z,7588
2019-04-23T16:17:08.228Z,7556
2019-04-23T16:18:18.927Z,7564
2019-04-23T16:19:17.614Z,7556
2019-04-23T16:20:17.404Z,7512
2019-04-23T16:22:11.032Z,7400
2019-04-23T16:23:17.794Z,7392
2019-04-23T16:25:13.333Z,7192
2019-04-23T16:26:23.085Z,7116
2019-04-23T16:28:38.471Z,6968
2019-04-23T16:31:32.171Z,6844
2019-04-23T16:33:22.034Z,6676
2019-04-23T16:34:29.196Z,6632
2019-04-23T16:35:33.008Z,6556
2019-04-23T16:36:35.884Z,6460
2019-04-23T16:37:36.187Z,6436
2019-04-23T16:38:38.798Z,6444
2019-04-23T16:39:39.307Z,6420
2019-04-23T16:40:39.524Z,6364
2019-04-23T16:41:39.948Z,6304
2019-04-23T16:42:39.985Z,6244
2019-04-23T16:43:42.191Z,6140
2019-04-23T16:45:01.214Z,6096
2019-04-23T16:45:45.489Z,6024
2019-04-23T16:46:54.203Z,5948
2019-04-23T16:47:46.829Z,5880
2019-04-23T16:48:58.186Z,5812
2019-04-23T16:49:57.581Z,5768
2019-04-23T16:51:12.261Z,5732
2019-04-23T16:51:45.962Z,5652
2019-04-23T16:53:02.956Z,5592
2019-04-23T16:53:54.239Z,5540
2019-04-23T16:56:04.225Z,5476
2019-04-23T16:58:13.002Z,5312